Time;durP1;ratioP1;P1;durP2;ratioP2;P2;SDS_P1;SDS_P2;PMS_P1;PMS_P2;Temp;Humidity;BMP_temperature;BMP_pressure;BME280_temperature;BME280_humidity;BME280_pressure;Samples;Min_cycle;Max_cycle;Signal;HPM_P1;HPM_P2
2022/09/03 00:00:55;;;;;;;4.93;2.15;;;21.70;99.90;;;;;;5012228;28;20219;-85
2022/09/03 00:03:36;;;;;;;3.65;2.33;;;21.50;99.90;;;;;;5013164;28;20224;-84
2022/09/03 00:06:27;;;;;;;7.70;2.35;;;21.50;99.90;;;;;;5014374;28;20176;-84
2022/09/03 00:09:31;;;;;;;8.60;2.67;;;21.70;99.90;;;;;;5012875;28;20184;-85
2022/09/03 00:12:12;;;;;;;4.88;2.22;;;21.60;99.90;;;;;;5014083;28;20188;-85
2022/09/03 00:14:56;;;;;;;7.28;2.42;;;21.70;99.90;;;;;;5013095;28;20168;-85
2022/09/03 00:17:28;;;;;;;8.02;2.50;;;21.90;99.90;;;;;;5012983;28;20172;-85
2022/09/03 00:20:10;;;;;;;5.63;2.35;;;21.90;99.90;;;;;;5013178;28;21439;-85
2022/09/03 00:22:46;;;;;;;2.22;2.03;;;22.00;99.90;;;;;;5013667;28;20215;-84
2022/09/03 00:25:18;;;;;;;12.68;2.85;;;22.10;99.90;;;;;;5013112;28;20187;-84
2022/09/03 00:27:49;;;;;;;3.85;2.63;;;22.10;99.90;;;;;;5012934;28;20263;-85
2022/09/03 00:30:16;;;;;;;2.00;1.90;;;22.10;99.90;;;;;;5013834;28;20171;-85
2022/09/03 00:33:08;;;;;;;3.05;2.40;;;22.20;99.90;;;;;;5014076;28;20193;-84
2022/09/03 00:35:41;;;;;;;5.47;2.45;;;22.20;99.90;;;;;;5012330;28;20184;-84
2022/09/03 00:38:07;;;;;;;13.98;2.50;;;22.00;99.90;;;;;;5012098;28;20180;-84
2022/09/03 00:40:53;;;;;;;4.50;2.08;;;22.10;99.90;;;;;;5012237;28;20168;-85
2022/09/03 00:43:45;;;;;;;2.42;2.03;;;22.20;99.90;;;;;;5013167;28;20208;-85
2022/09/03 00:46:40;;;;;;;2.60;2.20;;;22.10;99.90;;;;;;5014074;28;20164;-85
2022/09/03 00:49:24;;;;;;;3.35;1.80;;;22.00;99.90;;;;;;5013112;28;20732;-84
2022/09/03 00:52:08;;;;;;;2.33;2.15;;;22.00;99.90;;;;;;5013391;28;20165;-85
2022/09/03 00:54:42;;;;;;;4.85;2.00;;;21.90;99.90;;;;;;5012389;28;20168;-85
2022/09/03 00:57:50;;;;;;;5.30;1.65;;;22.00;99.90;;;;;;5014124;28;20226;-85
2022/09/03 01:00:18;;;;;;;3.15;2.00;;;22.00;99.90;;;;;;5013826;28;20528;-84
2022/09/03 01:03:09;;;;;;;17.90;2.28;;;22.00;99.90;;;;;;5012078;28;20307;-85
2022/09/03 01:05:47;;;;;;;2.70;1.85;;;22.00;99.90;;;;;;5013549;28;20173;-85
2022/09/03 01:08:31;;;;;;;5.20;2.10;;;22.00;99.90;;;;;;5013237;28;20580;-85
2022/09/03 01:11:18;;;;;;;2.42;2.00;;;22.00;99.90;;;;;;5013340;28;20243;-85
2022/09/03 01:14:14;;;;;;;5.18;1.95;;;22.00;99.90;;;;;;5013171;28;20233;-84
2022/09/03 01:16:55;;;;;;;7.13;2.10;;;22.10;99.90;;;;;;5012280;28;20184;-85
2022/09/03 01:19:50;;;;;;;1.98;1.70;;;22.00;99.90;;;;;;5013671;28;20172;-85
2022/09/03 01:22:53;;;;;;;1.98;1.65;;;22.00;99.90;;;;;;5012976;28;20322;-85
2022/09/03 01:25:45;;;;;;;10.05;1.90;;;22.10;99.90;;;;;;5012015;28;20172;-85
2022/09/03 01:28:39;;;;;;;5.00;1.80;;;22.10;99.90;;;;;;5011834;28;20238;-85
2022/09/03 01:31:29;;;;;;;6.25;1.80;;;22.10;99.90;;;;;;5011964;28;20267;-85
2022/09/03 01:34:24;;;;;;;4.35;2.53;;;22.20;99.90;;;;;;5011625;28;20246;-85
2022/09/03 01:37:10;;;;;;;2.20;1.98;;;22.20;99.90;;;;;;5012964;28;20537;-85
2022/09/03 01:39:41;;;;;;;3.33;2.75;;;22.30;99.90;;;;;;5011881;28;20172;-84
2022/09/03 01:42:26;;;;;;;3.47;1.98;;;22.40;99.90;;;;;;5012721;28;20184;-85
2022/09/03 01:45:07;;;;;;;9.55;2.17;;;22.30;99.90;;;;;;5011435;28;20180;-84
2022/09/03 01:47:36;;;;;;;2.83;2.38;;;22.30;99.90;;;;;;5011801;28;20582;-85
2022/09/03 01:50:12;;;;;;;3.05;2.83;;;22.30;99.90;;;;;;5011766;28;20264;-85
2022/09/03 01:52:45;;;;;;;4.00;2.63;;;22.40;99.90;;;;;;5011536;28;20207;-85
2022/09/03 01:55:32;;;;;;;2.50;2.30;;;22.40;99.90;;;;;;5011670;28;20541;-85
2022/09/03 01:58:14;;;;;;;3.17;2.72;;;22.30;99.90;;;;;;5011608;28;20180;-85
2022/09/03 02:00:43;;;;;;;10.68;2.85;;;22.40;99.90;;;;;;5011756;28;20172;-85
2022/09/03 02:03:11;;;;;;;4.68;3.00;;;22.40;99.90;;;;;;5011445;28;20315;-85
2022/09/03 02:05:37;;;;;;;2.90;2.70;;;22.40;99.90;;;;;;5011423;28;20164;-85
2022/09/03 02:08:06;;;;;;;2.60;2.38;;;22.40;99.90;;;;;;5011478;28;20637;-85
2022/09/03 02:10:40;;;;;;;6.90;3.25;;;22.40;99.90;;;;;;5012860;28;20240;-84
2022/09/03 02:13:10;;;;;;;6.82;2.67;;;22.30;99.90;;;;;;5011520;28;20286;-85
2022/09/03 02:15:38;;;;;;;2.72;2.53;;;22.20;99.90;;;;;;5011528;28;20197;-85
2022/09/03 02:18:09;;;;;;;5.53;2.17;;;22.10;99.90;;;;;;5011476;28;20203;-85
2022/09/03 02:20:37;;;;;;;3.35;2.58;;;22.00;99.90;;;;;;5011607;28;20180;-85
2022/09/03 02:23:03;;;;;;;6.22;2.65;;;22.00;99.90;;;;;;5012054;28;20228;-85
2022/09/03 02:25:34;;;;;;;3.20;2.40;;;22.10;99.90;;;;;;5014299;28;20165;-84
2022/09/03 02:28:01;;;;;;;2.28;2.08;;;22.00;99.90;;;;;;5016212;28;20164;-85
2022/09/03 02:30:26;;;;;;;3.13;2.17;;;22.00;99.90;;;;;;5015245;28;20204;-84
2022/09/03 02:32:52;;;;;;;8.50;2.42;;;22.10;99.90;;;;;;5014853;28;20216;-84
2022/09/03 02:35:18;;;;;;;10.63;2.55;;;22.00;99.90;;;;;;5014607;28;20169;-84
2022/09/03 02:37:44;;;;;;;2.78;2.58;;;22.00;99.90;;;;;;5014787;28;20164;-84
2022/09/03 02:40:10;;;;;;;7.30;2.20;;;21.90;99.90;;;;;;5014825;28;20180;-85
2022/09/03 02:42:36;;;;;;;2.08;1.98;;;21.80;99.90;;;;;;5014351;28;20735;-84
2022/09/03 02:45:27;;;;;;;5.75;2.35;;;21.90;99.90;;;;;;5014580;28;20176;-84
2022/09/03 02:47:57;;;;;;;7.13;2.45;;;21.90;99.90;;;;;;5014479;28;20176;-84
2022/09/03 02:50:23;;;;;;;3.13;2.30;;;21.90;99.90;;;;;;5014415;28;20186;-85
2022/09/03 02:52:50;;;;;;;4.38;2.58;;;21.90;99.90;;;;;;5014510;28;20180;-86
2022/09/03 02:55:16;;;;;;;3.25;2.55;;;21.90;99.90;;;;;;5014359;28;20248;-84
2022/09/03 02:57:42;;;;;;;6.47;2.33;;;21.90;99.90;;;;;;5014399;28;20168;-85
2022/09/03 03:00:08;;;;;;;2.78;2.58;;;21.90;99.90;;;;;;5015510;28;20168;-86
2022/09/03 03:02:34;;;;;;;4.25;2.70;;;21.60;99.90;;;;;;5014168;28;20689;-85
2022/09/03 03:05:00;;;;;;;11.85;2.97;;;21.40;99.90;;;;;;5014256;28;20184;-86
2022/09/03 03:07:30;;;;;;;2.97;2.15;;;21.50;99.90;;;;;;5014157;28;20644;-85
2022/09/03 03:09:56;;;;;;;7.57;3.08;;;21.60;99.90;;;;;;5014383;28;20303;-86
2022/09/03 03:12:22;;;;;;;11.00;3.08;;;21.50;99.90;;;;;;5014103;28;20220;-84
2022/09/03 03:14:47;;;;;;;9.48;3.38;;;21.60;99.90;;;;;;5015448;28;20528;-86
2022/09/03 03:17:13;;;;;;;8.80;4.10;;;21.70;99.90;;;;;;5014077;28;20175;-85
2022/09/03 03:19:38;;;;;;;4.80;4.35;;;21.80;99.90;;;;;;5013961;28;20665;-85
2022/09/03 03:22:04;;;;;;;14.63;5.13;;;21.80;99.90;;;;;;5015095;28;20185;-85
2022/09/03 03:24:29;;;;;;;4.80;4.40;;;22.00;99.90;;;;;;5014095;28;20579;-85
2022/09/03 03:26:58;;;;;;;5.07;4.55;;;21.90;99.90;;;;;;5013883;28;20175;-84
2022/09/03 03:29:24;;;;;;;6.07;5.53;;;21.90;99.90;;;;;;5014845;28;20603;-85
2022/09/03 03:31:50;;;;;;;10.75;6.55;;;21.80;99.90;;;;;;5013515;28;20203;-85
2022/09/03 03:34:16;;;;;;;7.88;6.72;;;21.90;99.90;;;;;;5013704;28;20207;-85
2022/09/03 03:36:42;;;;;;;7.82;6.28;;;22.00;99.90;;;;;;5014881;28;20169;-85
2022/09/03 03:39:07;;;;;;;7.75;5.60;;;22.00;99.90;;;;;;5013566;28;20188;-85
2022/09/03 03:41:34;;;;;;;10.10;6.32;;;21.90;99.90;;;;;;5013521;28;20160;-85
2022/09/03 03:44:06;;;;;;;10.82;5.45;;;22.00;99.90;;;;;;5013564;28;20216;-85
2022/09/03 03:46:34;;;;;;;14.93;4.90;;;21.80;99.90;;;;;;5013671;28;20199;-85
2022/09/03 03:49:00;;;;;;;4.60;4.20;;;21.80;99.90;;;;;;5013553;28;20215;-85
2022/09/03 03:51:25;;;;;;;10.05;5.18;;;21.90;99.90;;;;;;5013469;28;20263;-85
2022/09/03 03:53:54;;;;;;;14.90;4.57;;;22.00;99.90;;;;;;5014520;28;20191;-85
2022/09/03 03:56:20;;;;;;;6.75;5.15;;;21.80;99.90;;;;;;5013484;28;20183;-85
2022/09/03 03:58:47;;;;;;;9.30;4.78;;;21.90;99.90;;;;;;5013358;28;20161;-85
2022/09/03 04:01:24;;;;;;;4.70;4.30;;;21.80;99.90;;;;;;5013244;28;20639;-85
2022/09/03 04:03:50;;;;;;;6.05;4.60;;;21.90;99.90;;;;;;5013068;28;20315;-85
2022/09/03 04:06:18;;;;;;;6.32;5.07;;;21.80;99.90;;;;;;5014483;28;20226;-85
2022/09/03 04:08:45;;;;;;;9.80;4.95;;;21.70;99.90;;;;;;5014066;28;20248;-84
2022/09/03 04:11:15;;;;;;;10.85;5.25;;;21.60;99.90;;;;;;5014205;28;20522;-85
2022/09/03 04:13:42;;;;;;;9.93;5.00;;;21.50;99.90;;;;;;5012936;28;20200;-85
2022/09/03 04:16:14;;;;;;;5.00;4.53;;;21.40;99.90;;;;;;5013046;28;20187;-85
2022/09/03 04:18:40;;;;;;;11.90;5.03;;;21.20;99.90;;;;;;5013419;28;20176;-85
2022/09/03 04:21:07;;;;;;;10.95;4.90;;;21.30;99.90;;;;;;5014198;28;20180;-85
2022/09/03 04:23:35;;;;;;;5.15;4.10;;;21.10;99.90;;;;;;5012542;28;20216;-87
2022/09/03 04:26:01;;;;;;;6.20;4.70;;;20.70;99.90;;;;;;5012938;28;20652;-85
2022/09/03 04:28:27;;;;;;;8.30;2.85;;;20.60;99.90;;;;;;5012619;28;20517;-85
2022/09/03 04:30:53;;;;;;;2.60;2.40;;;20.70;99.90;;;;;;5012345;28;20214;-85
2022/09/03 04:33:19;;;;;;;9.82;2.88;;;20.70;99.90;;;;;;5012770;28;20250;-85
2022/09/03 04:35:45;;;;;;;2.88;2.67;;;20.90;99.90;;;;;;5012912;28;20170;-85
2022/09/03 04:38:11;;;;;;;3.67;2.75;;;20.90;99.90;;;;;;5013975;28;20173;-85
2022/09/03 04:40:37;;;;;;;2.67;2.47;;;20.90;99.90;;;;;;5012606;28;20177;-85
2022/09/03 04:43:03;;;;;;;6.40;2.55;;;20.90;99.90;;;;;;5012603;28;20215;-84
2022/09/03 04:45:29;;;;;;;8.05;2.30;;;20.90;99.90;;;;;;5013357;28;20161;-85
2022/09/03 04:47:59;;;;;;;2.65;2.45;;;21.00;99.90;;;;;;5013708;28;20168;-85
2022/09/03 04:50:26;;;;;;;2.55;2.35;;;21.00;99.90;;;;;;5012470;28;20204;-86
2022/09/03 04:52:59;;;;;;;2.28;2.08;;;20.90;99.90;;;;;;5012134;28;20660;-85
2022/09/03 04:55:25;;;;;;;9.73;3.22;;;21.00;99.90;;;;;;5012361;28;20220;-85
2022/09/03 04:57:51;;;;;;;3.75;2.65;;;20.90;99.90;;;;;;5012157;28;20234;-85
2022/09/03 05:00:18;;;;;;;2.78;2.58;;;20.60;99.90;;;;;;5012143;28;20243;-85
2022/09/03 05:02:48;;;;;;;7.35;3.03;;;20.70;99.90;;;;;;5011821;28;20215;-85
2022/09/03 05:05:14;;;;;;;3.17;2.97;;;20.90;99.90;;;;;;5012825;28;20259;-85
2022/09/03 05:07:40;;;;;;;7.13;2.90;;;21.00;99.90;;;;;;5011971;28;20180;-86
2022/09/03 05:10:19;;;;;;;6.65;3.10;;;21.00;99.90;;;;;;5013410;28;20176;-86
2022/09/03 05:12:45;;;;;;;2.90;2.70;;;20.70;99.90;;;;;;5011978;28;20192;-85
2022/09/03 05:15:10;;;;;;;2.90;2.70;;;20.30;99.90;;;;;;5012095;28;20168;-86
2022/09/03 05:17:37;;;;;;;4.55;3.17;;;20.10;99.90;;;;;;5013482;28;20259;-85
2022/09/03 05:20:05;;;;;;;3.38;3.00;;;20.20;99.90;;;;;;5012003;28;20600;-84
2022/09/03 05:22:31;;;;;;;4.60;3.55;;;20.60;99.90;;;;;;5011945;28;20254;-86
2022/09/03 05:24:56;;;;;;;5.70;3.85;;;20.70;99.90;;;;;;5011644;28;20173;-85
2022/09/03 05:27:22;;;;;;;3.50;3.20;;;20.80;99.90;;;;;;5012994;28;20167;-85
2022/09/03 05:29:48;;;;;;;3.70;3.38;;;20.80;99.90;;;;;;5013405;28;20559;-88
2022/09/03 05:32:16;;;;;;;3.72;3.25;;;20.80;99.90;;;;;;5013371;28;20184;-89
2022/09/03 05:34:42;;;;;;;3.45;3.10;;;20.70;99.90;;;;;;5012377;28;20176;-85
2022/09/03 05:37:08;;;;;;;3.40;3.20;;;20.70;99.90;;;;;;5013027;28;20215;-90
2022/09/03 05:39:33;;;;;;;3.78;3.47;;;20.60;99.90;;;;;;5011939;28;20165;-85
2022/09/03 05:41:59;;;;;;;8.43;3.15;;;20.60;99.90;;;;;;5013377;28;20596;-85
2022/09/03 05:44:25;;;;;;;5.60;4.25;;;20.60;99.90;;;;;;5023964;28;20199;-86
2022/09/03 05:46:50;;;;;;;4.03;3.55;;;20.80;99.90;;;;;;5032221;28;20168;-85
2022/09/03 05:49:16;;;;;;;4.00;3.30;;;20.90;99.90;;;;;;5032383;28;20282;-81
2022/09/03 05:51:42;;;;;;;4.10;3.75;;;20.70;99.90;;;;;;5031546;28;20172;-85
2022/09/03 05:54:09;;;;;;;4.03;3.72;;;20.80;99.90;;;;;;5030984;28;20168;-81
2022/09/03 05:56:36;;;;;;;6.82;4.00;;;20.70;99.90;;;;;;5032324;28;20157;-81
2022/09/03 05:59:06;;;;;;;3.80;3.50;;;20.70;99.90;;;;;;5033447;28;20172;-82
2022/09/03 06:01:40;;;;;;;9.13;3.95;;;20.90;99.90;;;;;;5034164;28;20164;-81
2022/09/03 06:04:08;;;;;;;4.00;3.70;;;21.10;99.90;;;;;;5033921;28;20215;-82
2022/09/03 06:06:36;;;;;;;4.20;3.88;;;21.10;99.90;;;;;;5035631;28;20168;-83
2022/09/03 06:09:04;;;;;;;4.22;3.85;;;21.30;99.90;;;;;;5034734;28;20207;-83
2022/09/03 06:11:31;;;;;;;6.38;4.30;;;21.40;99.90;;;;;;5035888;28;20168;-86
2022/09/03 06:14:06;;;;;;;4.78;4.38;;;21.50;99.90;;;;;;5034672;28;20564;-87
2022/09/03 06:16:34;;;;;;;5.40;4.38;;;21.70;99.90;;;;;;5034736;28;20171;-84
2022/09/03 06:18:59;;;;;;;7.95;4.35;;;21.80;99.90;;;;;;5034860;28;20180;-84
2022/09/03 06:21:26;;;;;;;5.78;4.50;;;21.90;99.90;;;;;;5035960;28;20171;-82
2022/09/03 06:23:56;;;;;;;4.25;3.95;;;22.20;99.90;;;;;;5033774;28;20215;-82
2022/09/03 06:26:23;;;;;;;4.05;3.75;;;22.30;99.90;;;;;;5035127;28;20235;-82
2022/09/03 06:28:49;;;;;;;5.60;3.67;;;22.20;99.90;;;;;;5035432;28;20278;-82
2022/09/03 06:31:16;;;;;;;6.78;4.10;;;21.90;99.90;;;;;;5034083;28;20183;-82
2022/09/03 06:33:43;;;;;;;5.70;3.60;;;21.60;99.90;;;;;;5033809;28;20188;-81
2022/09/03 06:36:14;;;;;;;5.38;4.40;;;21.60;99.90;;;;;;5034671;28;20675;-81
2022/09/03 06:38:40;;;;;;;4.50;4.10;;;21.70;99.90;;;;;;5033598;28;20510;-81
2022/09/03 06:41:09;;;;;;;4.53;4.13;;;21.80;99.90;;;;;;5033565;28;20206;-82
2022/09/03 06:43:38;;;;;;;4.70;4.30;;;21.80;99.90;;;;;;5034993;28;20212;-82
2022/09/03 06:46:11;;;;;;;4.47;4.18;;;21.90;99.90;;;;;;5035510;28;20183;-82
2022/09/03 06:48:37;;;;;;;4.40;4.00;;;21.90;99.90;;;;;;5033617;28;20890;-86
2022/09/03 06:51:05;;;;;;;5.05;4.15;;;22.10;99.90;;;;;;5034970;28;20164;-84
2022/09/03 06:53:36;;;;;;;4.25;3.85;;;22.00;99.90;;;;;;5033792;28;20200;-86
2022/09/03 06:56:11;;;;;;;5.07;4.57;;;22.10;99.90;;;;;;5035650;28;20171;-81
2022/09/03 06:58:42;;;;;;;4.55;4.13;;;22.20;99.90;;;;;;5035091;28;20186;-83
2022/09/03 07:01:11;;;;;;;7.00;3.80;;;22.20;99.90;;;;;;5033941;28;20547;-91
2022/09/03 07:03:38;;;;;;;6.85;3.20;;;22.30;99.90;;;;;;5035534;28;20227;-83
2022/09/03 07:06:15;;;;;;;9.75;2.83;;;22.30;99.90;;;;;;5033534;28;20274;-83
2022/09/03 07:08:41;;;;;;;5.50;3.35;;;22.10;99.90;;;;;;5030958;28;20182;-82
2022/09/03 07:11:13;;;;;;;6.20;3.60;;;22.10;99.90;;;;;;5032711;28;20168;-83
2022/09/03 07:13:41;;;;;;;11.80;3.47;;;22.30;99.90;;;;;;5032844;28;20199;-83
2022/09/03 07:16:09;;;;;;;7.97;3.67;;;22.50;99.90;;;;;;5034286;28;20171;-82
2022/09/03 07:18:35;;;;;;;6.68;3.00;;;22.50;99.90;;;;;;5032902;28;20167;-85
2022/09/03 07:21:04;;;;;;;3.45;2.78;;;22.30;99.90;;;;;;5034791;28;20168;-84
2022/09/03 07:23:30;;;;;;;11.23;3.30;;;22.20;99.90;;;;;;5032624;28;20212;-84
2022/09/03 07:25:58;;;;;;;3.40;2.92;;;22.10;99.90;;;;;;5034076;28;20629;-83
2022/09/03 07:28:25;;;;;;;3.13;2.92;;;22.10;99.90;;;;;;5034002;28;20254;-82
2022/09/03 07:30:52;;;;;;;3.92;2.97;;;22.40;99.90;;;;;;5034838;28;20156;-86
2022/09/03 07:33:17;;;;;;;16.33;2.95;;;22.30;99.90;;;;;;5035011;28;20191;-85
2022/09/03 07:35:44;;;;;;;2.92;2.45;;;22.50;99.90;;;;;;5033107;28;20250;-85
2022/09/03 07:38:10;;;;;;;8.77;3.10;;;22.50;99.90;;;;;;5033189;28;20168;-86
2022/09/03 07:40:38;;;;;;;2.97;2.42;;;22.70;99.90;;;;;;5037919;28;20247;-86
2022/09/03 07:43:04;;;;;;;4.97;2.95;;;22.90;99.90;;;;;;5032987;28;20203;-83
2022/09/03 07:45:32;;;;;;;7.38;2.30;;;23.00;99.90;;;;;;5032192;28;20194;-82
2022/09/03 07:47:58;;;;;;;3.60;2.60;;;22.90;99.90;;;;;;5031684;28;20183;-83
2022/09/03 07:50:23;;;;;;;8.32;3.00;;;23.00;99.90;;;;;;5032841;28;20263;-94
2022/09/03 07:52:54;;;;;;;7.35;2.50;;;23.10;99.90;;;;;;5033734;28;20188;-83
2022/09/03 07:55:20;;;;;;;7.97;2.63;;;23.30;99.90;;;;;;5033395;28;20180;-92
2022/09/03 07:57:45;;;;;;;4.72;3.03;;;23.40;99.90;;;;;;5036740;28;20171;-92
2022/09/03 08:00:12;;;;;;;6.70;2.90;;;23.60;99.90;;;;;;5035145;28;20502;-91
2022/09/03 08:02:37;;;;;;;9.98;2.53;;;23.70;99.90;;;;;;5038198;28;20207;-90
2022/09/03 08:05:03;;;;;;;10.38;2.65;;;23.80;99.90;;;;;;5037942;28;20160;-81
2022/09/03 08:07:29;;;;;;;2.85;2.63;;;23.80;99.90;;;;;;5033168;28;20171;-80
2022/09/03 08:09:55;;;;;;;14.93;2.90;;;23.90;99.90;;;;;;5032591;28;20176;-82
2022/09/03 08:12:21;;;;;;;6.45;3.28;;;24.00;99.90;;;;;;5032206;28;20220;-80
2022/09/03 08:17:12;;;;;;;3.25;2.15;;;24.30;99.90;;;;;;5031966;28;20187;-84
2022/09/03 08:19:39;;;;;;;6.07;2.60;;;24.10;99.90;;;;;;5031902;28;20192;-81
2022/09/03 08:22:05;;;;;;;5.55;2.78;;;24.10;99.90;;;;;;5033682;28;20180;-81
2022/09/03 08:24:34;;;;;;;6.85;2.97;;;23.90;99.90;;;;;;5048932;28;20287;-84
2022/09/03 08:27:02;;;;;;;16.48;2.67;;;24.20;99.90;;;;;;5052898;28;20178;-84
2022/09/03 08:29:28;;;;;;;4.40;2.65;;;24.50;99.90;;;;;;5049376;28;20190;-80
2022/09/03 08:31:54;;;;;;;4.13;2.33;;;24.40;99.90;;;;;;5032657;28;20167;-81
2022/09/03 08:34:19;;;;;;;4.82;2.65;;;24.10;99.90;;;;;;5034170;28;20197;-81
2022/09/03 08:36:45;;;;;;;3.15;2.85;;;24.30;99.90;;;;;;5037913;28;20179;-82
2022/09/03 08:39:12;;;;;;;4.10;2.95;;;24.50;99.90;;;;;;5032295;28;20174;-81
2022/09/03 08:41:49;;;;;;;4.45;2.97;;;24.50;99.90;;;;;;5022147;28;20171;-82
2022/09/03 08:44:24;;;;;;;3.53;3.22;;;24.30;99.90;;;;;;5031452;28;20203;-83
2022/09/03 08:47:09;;;;;;;5.13;2.95;;;23.90;99.90;;;;;;5032674;28;20167;-79
2022/09/03 08:49:54;;;;;;;6.25;3.28;;;24.00;99.90;;;;;;5031437;28;20270;-81
2022/09/03 08:52:49;;;;;;;19.60;3.72;;;24.00;99.90;;;;;;5031895;28;20186;-80
2022/09/03 08:55:35;;;;;;;3.75;2.72;;;24.10;99.90;;;;;;5032599;28;20195;-81
2022/09/03 08:58:05;;;;;;;3.13;2.83;;;24.40;99.90;;;;;;5034546;28;20623;-81
2022/09/03 09:01:00;;;;;;;4.97;2.90;;;24.30;99.90;;;;;;5031665;28;20182;-83
2022/09/03 09:03:56;;;;;;;2.80;2.60;;;24.50;99.90;;;;;;5030975;28;20684;-80
2022/09/03 09:06:38;;;;;;;6.00;3.30;;;24.80;99.90;;;;;;5031372;28;20191;-83
2022/09/03 09:09:48;;;;;;;3.17;2.88;;;25.00;99.90;;;;;;5032213;28;20164;-83
2022/09/03 09:12:27;;;;;;;6.65;3.72;;;25.40;99.90;;;;;;4974440;28;20550;-82
2022/09/03 09:15:12;;;;;;;3.97;3.67;;;25.60;99.90;;;;;;5024992;28;20628;-83
2022/09/03 09:17:47;;;;;;;4.28;3.22;;;25.70;99.90;;;;;;5033550;28;20164;-82
2022/09/03 09:20:40;;;;;;;7.30;3.47;;;25.80;99.90;;;;;;5032518;28;20202;-82
2022/09/03 09:23:18;;;;;;;9.43;3.17;;;25.80;99.90;;;;;;5008581;28;20215;-83
2022/09/03 09:25:48;;;;;;;10.95;3.30;;;25.20;99.90;;;;;;5031653;28;20175;-82
2022/09/03 09:28:20;;;;;;;7.03;2.90;;;25.10;99.90;;;;;;5032008;28;20164;-83
2022/09/03 09:30:48;;;;;;;4.75;3.10;;;25.30;99.90;;;;;;5030576;28;20535;-82
2022/09/03 09:33:15;;;;;;;9.07;2.80;;;25.60;99.90;;;;;;5033905;28;20192;-83
2022/09/03 09:35:42;;;;;;;4.03;3.50;;;25.50;99.90;;;;;;5036181;28;20228;-83
2022/09/03 09:38:09;;;;;;;3.75;3.40;;;25.40;99.90;;;;;;5035536;28;20250;-81
2022/09/03 09:40:37;;;;;;;10.35;3.85;;;25.30;99.90;;;;;;5034803;28;20168;-83
2022/09/03 09:43:08;;;;;;;4.57;3.42;;;25.10;99.90;;;;;;5034817;28;20691;-83
2022/09/03 09:45:34;;;;;;;4.75;3.53;;;25.40;99.90;;;;;;5034930;28;20172;-80
2022/09/03 09:48:01;;;;;;;7.00;3.47;;;25.70;99.90;;;;;;5035990;28;20250;-81
2022/09/03 09:50:27;;;;;;;6.53;3.83;;;26.10;99.90;;;;;;5034798;28;20620;-81
2022/09/03 09:53:07;;;;;;;4.32;3.25;;;26.10;99.90;;;;;;5036000;28;20191;-80
2022/09/03 09:55:33;;;;;;;7.40;3.75;;;26.20;99.90;;;;;;5032525;28;20241;-82
2022/09/03 09:58:08;;;;;;;4.90;3.85;;;26.20;99.90;;;;;;5014034;28;20187;-84
2022/09/03 10:00:36;;;;;;;5.63;3.63;;;26.20;99.90;;;;;;5032571;28;20168;-84
2022/09/03 10:03:09;;;;;;;4.18;3.28;;;26.20;99.90;;;;;;5014541;28;20216;-84
2022/09/03 10:05:38;;;;;;;5.03;3.45;;;26.60;99.90;;;;;;5025437;28;20597;-83
2022/09/03 10:08:06;;;;;;;14.52;4.28;;;26.70;99.90;;;;;;5032709;28;20171;-83
2022/09/03 10:10:41;;;;;;;4.10;3.60;;;26.10;99.90;;;;;;5036086;28;20223;-83
2022/09/03 10:13:14;;;;;;;3.92;3.50;;;26.20;99.90;;;;;;5034379;28;20188;-82
2022/09/03 10:15:49;;;;;;;5.38;3.65;;;26.60;99.90;;;;;;5038706;28;20175;-82
2022/09/03 10:18:27;;;;;;;10.35;4.80;;;26.80;99.90;;;;;;5039960;28;20229;-83
2022/09/03 10:21:18;;;;;;;3.55;3.28;;;26.70;99.90;;;;;;5041430;28;20163;-83
2022/09/03 10:23:52;;;;;;;4.18;3.60;;;26.40;99.90;;;;;;5042212;28;20239;-83
2022/09/03 10:26:30;;;;;;;5.25;3.92;;;26.40;99.90;;;;;;5034486;28;20270;-84
2022/09/03 10:28:59;;;;;;;4.78;3.95;;;26.80;99.90;;;;;;5034079;28;20167;-83
2022/09/03 10:31:40;;;;;;;4.07;3.67;;;27.00;99.90;;;;;;5033904;28;20283;-83
2022/09/03 10:34:33;;;;;;;4.13;3.72;;;27.20;99.90;;;;;;5034720;28;20217;-82
2022/09/03 10:37:25;;;;;;;4.00;3.42;;;27.20;99.90;;;;;;5033516;28;20183;-82
2022/09/03 10:40:17;;;;;;;4.00;3.70;;;27.30;99.90;;;;;;5034764;28;20534;-82
2022/09/03 10:43:15;;;;;;;5.20;3.50;;;27.70;99.90;;;;;;5034339;28;20195;-82
2022/09/03 10:46:23;;;;;;;8.23;3.90;;;27.80;99.90;;;;;;5034112;28;20646;-83
2022/09/03 10:48:57;;;;;;;13.23;3.95;;;27.80;99.90;;;;;;5015553;28;20187;-83
2022/09/03 10:51:32;;;;;;;6.50;4.20;;;27.90;99.90;;;;;;5033586;28;20182;-83
2022/09/03 10:54:10;;;;;;;10.25;4.13;;;28.00;99.90;;;;;;5033145;28;20195;-83
2022/09/03 10:57:12;;;;;;;5.90;4.13;;;27.90;99.90;;;;;;5033679;28;20206;-83
2022/09/03 11:00:21;;;;;;;4.57;4.15;;;27.50;99.90;;;;;;5033578;28;20646;-85
2022/09/03 11:03:12;;;;;;;11.63;4.65;;;27.50;99.90;;;;;;5033947;28;20216;-84
2022/09/03 11:05:52;;;;;;;4.35;4.00;;;27.70;99.90;;;;;;5033550;28;20184;-84
2022/09/03 11:08:36;;;;;;;9.13;6.22;;;27.80;99.90;;;;;;5033591;28;20164;-85
2022/09/03 11:11:27;;;;;;;10.57;4.70;;;27.60;99.90;;;;;;5033419;28;20167;-86
2022/09/03 11:13:58;;;;;;;4.53;4.22;;;27.60;99.90;;;;;;5028373;28;20194;-83
2022/09/03 11:16:32;;;;;;;6.25;4.85;;;27.30;99.90;;;;;;5033259;28;20198;-84
2022/09/03 11:19:07;;;;;;;4.90;4.43;;;27.20;99.90;;;;;;5033061;28;20167;-84
2022/09/03 11:21:37;;;;;;;4.38;4.07;;;27.20;99.90;;;;;;5027153;28;20168;-84
2022/09/03 11:24:16;;;;;;;6.72;3.80;;;27.10;99.90;;;;;;5020760;28;20196;-85
2022/09/03 11:26:51;;;;;;;4.18;3.72;;;27.20;99.90;;;;;;5024722;28;20209;-85
2022/09/03 11:29:16;;;;;;;4.07;3.67;;;27.30;99.90;;;;;;5011746;28;20164;-84
2022/09/03 11:32:02;;;;;;;4.65;3.55;;;27.50;99.90;;;;;;5012010;28;20234;-84
2022/09/03 11:34:43;;;;;;;4.50;3.60;;;27.60;99.90;;;;;;5012911;28;20556;-84
2022/09/03 11:37:22;;;;;;;4.63;4.22;;;27.60;99.90;;;;;;5014406;28;20177;-85
2022/09/03 11:40:09;;;;;;;4.38;4.07;;;27.50;99.90;;;;;;5014634;28;20591;-85
2022/09/03 11:42:37;;;;;;;4.85;4.32;;;26.90;99.90;;;;;;5014434;28;20267;-85
2022/09/03 11:45:22;;;;;;;6.65;4.72;;;26.90;99.90;;;;;;5013144;28;20180;-85
2022/09/03 11:47:48;;;;;;;11.80;4.65;;;27.10;99.90;;;;;;5012900;28;20214;-84
2022/09/03 11:50:24;;;;;;;8.43;3.83;;;26.70;99.90;;;;;;5014350;28;20256;-85
2022/09/03 11:52:53;;;;;;;9.73;3.85;;;26.80;99.90;;;;;;5013881;28;20192;-83
2022/09/03 11:55:32;;;;;;;6.03;5.53;;;26.70;99.90;;;;;;5011914;28;20622;-83
2022/09/03 11:58:10;;;;;;;10.25;5.40;;;26.80;99.90;;;;;;5013016;28;20214;-83
2022/09/03 12:00:38;;;;;;;6.75;4.45;;;26.70;99.90;;;;;;5012417;28;20181;-82
2022/09/03 12:03:04;;;;;;;4.68;4.28;;;26.70;99.90;;;;;;5012323;28;20200;-83
2022/09/03 12:05:41;;;;;;;5.68;3.95;;;26.60;99.90;;;;;;5012872;28;20177;-84
2022/09/03 12:08:37;;;;;;;9.85;4.15;;;26.80;99.90;;;;;;5013710;28;20659;-83
2022/09/03 12:11:29;;;;;;;11.20;3.58;;;26.90;99.90;;;;;;5012334;28;20168;-84
2022/09/03 12:14:22;;;;;;;4.57;3.42;;;27.30;99.90;;;;;;5012296;28;20242;-84
2022/09/03 12:16:56;;;;;;;5.18;3.83;;;27.60;99.90;;;;;;5012221;28;20183;-83
2022/09/03 12:19:41;;;;;;;3.15;2.90;;;27.10;99.90;;;;;;5012090;28;20559;-83
2022/09/03 12:22:13;;;;;;;6.05;3.70;;;27.20;99.90;;;;;;5012003;28;20211;-85
2022/09/03 12:24:41;;;;;;;6.82;3.67;;;27.40;99.90;;;;;;5011722;28;20214;-84
2022/09/03 12:27:11;;;;;;;4.22;3.83;;;27.70;99.90;;;;;;5012938;28;20169;-85
2022/09/03 12:29:39;;;;;;;4.97;4.50;;;28.10;99.90;;;;;;5012069;28;20183;-84
2022/09/03 12:32:12;;;;;;;5.80;4.03;;;28.20;99.90;;;;;;5011802;28;20211;-84
2022/09/03 12:34:37;;;;;;;9.73;4.05;;;28.40;99.90;;;;;;5011815;28;20191;-85
2022/09/03 12:37:17;;;;;;;4.45;2.70;;;28.50;99.90;;;;;;5012022;28;20621;-85
2022/09/03 12:39:50;;;;;;;2.88;2.20;;;28.20;99.90;;;;;;5013018;28;20218;-85
2022/09/03 12:42:24;;;;;;;2.67;2.42;;;27.90;99.90;;;;;;5011831;28;20196;-84
2022/09/03 12:44:50;;;;;;;4.43;3.97;;;28.00;99.90;;;;;;5011878;28;20192;-84
2022/09/03 12:47:18;;;;;;;2.97;2.38;;;28.30;99.90;;;;;;5013577;28;20179;-84
2022/09/03 12:49:46;;;;;;;3.40;2.70;;;28.20;99.90;;;;;;5012045;28;20654;-85
2022/09/03 12:52:30;;;;;;;8.50;2.75;;;28.40;99.90;;;;;;5012626;28;20188;-84
2022/09/03 12:55:07;;;;;;;3.67;2.35;;;28.50;99.90;;;;;;5011760;28;20282;-84
2022/09/03 12:58:05;;;;;;;2.42;2.22;;;28.60;99.90;;;;;;5013282;28;20164;-85
2022/09/03 13:00:35;;;;;;;8.38;3.22;;;28.50;99.90;;;;;;5003821;28;20282;-84
2022/09/03 13:03:07;;;;;;;3.13;2.92;;;28.70;99.90;;;;;;5011278;28;20307;-83
2022/09/03 13:05:41;;;;;;;3.20;2.90;;;28.70;99.90;;;;;;5011336;28;20175;-83
2022/09/03 13:08:08;;;;;;;5.07;2.97;;;28.60;99.90;;;;;;5011315;28;20261;-85
2022/09/03 13:10:41;;;;;;;2.75;2.33;;;28.50;99.90;;;;;;5011377;28;20648;-84
2022/09/03 13:13:22;;;;;;;3.53;2.70;;;28.60;99.90;;;;;;5011180;28;20196;-85
2022/09/03 13:16:06;;;;;;;3.47;2.00;;;28.60;99.90;;;;;;5011645;28;20179;-85
2022/09/03 13:18:46;;;;;;;3.90;1.80;;;28.30;99.90;;;;;;5011751;28;20172;-84